createdAt,value
2023-03-02T00:02:02.330Z,2.19
2023-03-02T00:04:38.457Z,2.13
2023-03-02T00:07:10.027Z,2.01
2023-03-02T00:09:38.602Z,2.03
2023-03-02T00:12:07.398Z,2.51
2023-03-02T00:14:35.455Z,2.19
2023-03-02T00:17:04.909Z,2.02
2023-03-02T00:19:32.954Z,1.38
2023-03-02T00:22:00.996Z,1.30
2023-03-02T00:24:29.605Z,1.20
2023-03-02T00:26:58.032Z,1.88
2023-03-02T00:29:26.084Z,1.96
2023-03-02T00:31:54.649Z,2.29
2023-03-02T00:34:22.735Z,1.62
2023-03-02T00:36:50.758Z,1.48
2023-03-02T00:39:20.425Z,1.49
2023-03-02T00:41:49.065Z,1.67
2023-03-02T00:44:19.760Z,1.28
2023-03-02T00:46:48.150Z,1.57
2023-03-02T00:49:16.226Z,0.92
2023-03-02T00:51:44.331Z,0.65
2023-03-02T00:54:12.672Z,0.78
2023-03-02T00:56:40.894Z,1.59
2023-03-02T00:59:31.553Z,1.26
2023-03-02T01:02:01.289Z,1.70
2023-03-02T01:04:39.081Z,1.00
2023-03-02T01:07:12.754Z,0.73
2023-03-02T01:09:42.383Z,0.39
2023-03-02T01:12:11.585Z,1.34
2023-03-02T01:14:41.897Z,0.33
2023-03-02T01:17:11.366Z,0.32
2023-03-02T01:19:40.329Z,0.27
2023-03-02T01:22:08.958Z,1.06
2023-03-02T01:24:37.349Z,1.17
2023-03-02T01:27:05.391Z,1.23
2023-03-02T01:29:33.391Z,1.11
2023-03-02T01:32:02.926Z,0.98
2023-03-02T01:34:31.751Z,1.14
2023-03-02T01:36:59.710Z,1.08
2023-03-02T01:39:28.141Z,0.98
2023-03-02T01:41:56.161Z,0.99
2023-03-02T01:44:36.628Z,0.75
2023-03-02T01:47:14.080Z,1.21
2023-03-02T01:50:04.928Z,1.08
2023-03-02T01:52:35.506Z,0.65
2023-03-02T01:55:05.858Z,1.23
2023-03-02T01:57:43.810Z,0.70
2023-03-02T02:00:19.668Z,0.42
2023-03-02T02:02:49.110Z,0.75
2023-03-02T02:05:20.666Z,1.16
2023-03-02T02:07:49.291Z,1.03
2023-03-02T02:10:17.554Z,1.32
2023-03-02T02:12:45.589Z,1.00
2023-03-02T02:15:14.018Z,0.61
2023-03-02T02:17:42.681Z,0.88
2023-03-02T02:20:15.126Z,1.42
2023-03-02T02:22:53.678Z,1.31
2023-03-02T02:25:33.851Z,0.62
2023-03-02T02:28:04.297Z,0.63
2023-03-02T02:30:32.336Z,0.69
2023-03-02T02:33:00.460Z,0.90
2023-03-02T02:35:30.522Z,0.93
2023-03-02T02:38:04.049Z,0.61
2023-03-02T02:40:57.457Z,0.81
2023-03-02T02:43:27.070Z,1.07
2023-03-02T02:45:57.482Z,0.71
2023-03-02T02:48:31.313Z,0.87
2023-03-02T02:51:00.893Z,0.65
2023-03-02T02:53:49.079Z,0.74
2023-03-02T02:56:18.503Z,0.98
2023-03-02T02:58:51.557Z,0.63
2023-03-02T03:01:26.302Z,0.59
2023-03-02T03:04:02.189Z,0.53
2023-03-02T03:06:42.717Z,1.22
2023-03-02T03:09:11.872Z,0.65
2023-03-02T03:11:46.442Z,0.65
2023-03-02T03:14:17.165Z,0.65
2023-03-02T03:16:48.356Z,0.31
2023-03-02T03:19:22.861Z,0.78
2023-03-02T03:21:54.344Z,0.85
2023-03-02T03:24:23.858Z,0.20
2023-03-02T03:26:54.475Z,0.60
2023-03-02T03:29:25.254Z,0.75
2023-03-02T03:31:55.966Z,0.37
2023-03-02T03:34:25.115Z,0.48
2023-03-02T03:36:54.062Z,1.31
2023-03-02T03:39:22.424Z,0.91
2023-03-02T03:41:51.319Z,1.12
2023-03-02T03:44:20.089Z,1.26
2023-03-02T03:46:49.020Z,1.05
2023-03-02T03:49:17.518Z,0.56
2023-03-02T03:51:46.133Z,0.65
2023-03-02T03:54:15.069Z,1.03
2023-03-02T03:56:48.327Z,1.12
2023-03-02T03:59:20.178Z,0.64
2023-03-02T04:01:51.739Z,0.99
2023-03-02T04:04:31.081Z,0.65
2023-03-02T04:06:59.748Z,1.39
2023-03-02T04:09:28.434Z,1.38
2023-03-02T04:11:57.627Z,0.16
2023-03-02T04:14:26.118Z,0.45
2023-03-02T04:16:54.926Z,0.88
2023-03-02T04:19:24.201Z,0.89
2023-03-02T04:21:54.478Z,1.09
2023-03-02T04:24:23.846Z,0.83
2023-03-02T04:26:52.215Z,0.28
2023-03-02T04:29:20.572Z,0.37
2023-03-02T04:31:48.913Z,0.43
2023-03-02T04:34:17.360Z,1.21
2023-03-02T04:36:45.939Z,1.07
2023-03-02T04:39:16.045Z,0.72
2023-03-02T04:41:46.116Z,0.62
2023-03-02T04:44:15.350Z,0.91
2023-03-02T04:46:44.903Z,0.63
2023-03-02T04:49:14.210Z,0.86
2023-03-02T04:51:45.190Z,0.68
2023-03-02T04:54:25.062Z,1.07
2023-03-02T04:56:54.149Z,0.09
2023-03-02T04:59:30.871Z,0.75
2023-03-02T05:02:00.942Z,0.42
2023-03-02T05:04:29.368Z,0.72
2023-03-02T05:06:57.703Z,-0.10
2023-03-02T05:09:31.132Z,0.51
2023-03-02T05:12:00.722Z,0.22
2023-03-02T05:14:31.317Z,0.22
2023-03-02T05:16:59.367Z,-0.03
2023-03-02T05:19:27.571Z,0.66
2023-03-02T05:21:56.731Z,0.69
2023-03-02T05:24:24.864Z,0.56
2023-03-02T05:26:52.870Z,0.57
2023-03-02T05:29:21.337Z,0.10
2023-03-02T05:31:49.913Z,-0.68
2023-03-02T05:34:18.623Z,-0.04
2023-03-02T05:36:47.123Z,0.66
2023-03-02T05:39:15.106Z,0.59
2023-03-02T05:41:43.085Z,0.59
2023-03-02T05:44:12.799Z,0.42
2023-03-02T05:46:40.987Z,0.41
2023-03-02T05:49:08.991Z,0.34
2023-03-02T05:51:37.348Z,0.59
2023-03-02T05:54:05.406Z,0.59
2023-03-02T05:56:33.782Z,0.65
2023-03-02T05:59:02.497Z,0.85
2023-03-02T06:01:30.679Z,0.78
2023-03-02T06:03:59.208Z,1.10
2023-03-02T06:06:27.182Z,1.24
2023-03-02T06:08:55.322Z,1.62
2023-03-02T06:11:23.875Z,2.27
2023-03-02T06:13:51.984Z,2.98
2023-03-02T06:16:19.989Z,3.69
2023-03-02T06:18:48.435Z,4.30
2023-03-02T06:21:16.636Z,5.74
2023-03-02T06:23:45.473Z,7.23
2023-03-02T06:26:14.160Z,7.97
2023-03-02T06:28:52.229Z,7.55
2023-03-02T06:31:22.790Z,8.52
2023-03-02T06:33:51.004Z,8.94
2023-03-02T06:36:19.198Z,8.56
2023-03-02T06:38:48.380Z,8.28
2023-03-02T06:41:16.958Z,8.65
2023-03-02T06:43:45.370Z,8.52
2023-03-02T06:46:13.856Z,8.41
2023-03-02T06:48:42.270Z,8.66
2023-03-02T06:51:10.446Z,9.51
2023-03-02T06:53:38.978Z,9.30
2023-03-02T06:56:07.785Z,11.01
2023-03-02T06:58:36.996Z,11.22
2023-03-02T07:01:08.013Z,11.49
2023-03-02T07:03:37.721Z,11.41
2023-03-02T07:06:06.513Z,9.97
2023-03-02T07:08:34.650Z,9.70
2023-03-02T07:11:06.633Z,9.23
2023-03-02T07:13:35.173Z,9.49
2023-03-02T07:16:12.427Z,9.86
2023-03-02T07:18:41.122Z,10.17
2023-03-02T07:21:09.422Z,9.83
2023-03-02T07:23:37.543Z,9.79
2023-03-02T07:26:08.761Z,10.19
2023-03-02T07:28:39.824Z,8.99
2023-03-02T07:31:09.111Z,9.77
2023-03-02T07:33:40.923Z,10.44
2023-03-02T07:36:10.867Z,10.34
2023-03-02T07:38:39.010Z,10.40
2023-03-02T07:41:09.929Z,10.88
2023-03-02T07:43:38.518Z,10.78
2023-03-02T07:46:06.950Z,10.40
2023-03-02T07:48:36.562Z,11.16
2023-03-02T07:51:10.097Z,11.23
2023-03-02T07:53:42.737Z,11.16
2023-03-02T07:56:13.184Z,10.63
2023-03-02T07:58:42.014Z,11.41
2023-03-02T08:01:12.415Z,11.57
2023-03-02T08:03:41.918Z,11.84
2023-03-02T08:06:13.068Z,11.81
2023-03-02T08:08:43.637Z,12.31
2023-03-02T08:11:16.431Z,11.87
2023-03-02T08:13:47.865Z,11.83
2023-03-02T08:16:16.593Z,11.49
2023-03-02T08:18:45.149Z,12.11
2023-03-02T08:21:20.045Z,12.32
2023-03-02T08:23:49.185Z,12.51
2023-03-02T08:26:18.660Z,12.30
2023-03-02T08:28:47.053Z,12.50
2023-03-02T08:31:16.212Z,12.18
2023-03-02T08:33:46.385Z,12.59
2023-03-02T08:36:17.050Z,12.70
2023-03-02T08:38:46.524Z,13.13
2023-03-02T08:41:18.052Z,13.16
2023-03-02T08:43:47.203Z,13.59
2023-03-02T08:46:17.826Z,13.33
2023-03-02T08:48:46.729Z,13.35
2023-03-02T08:51:17.325Z,13.28
2023-03-02T08:53:47.736Z,13.25
2023-03-02T08:56:19.006Z,13.28
2023-03-02T08:58:48.096Z,13.57
2023-03-02T09:01:32.491Z,13.53
2023-03-02T09:04:01.427Z,13.76
2023-03-02T09:06:36.475Z,13.50
2023-03-02T09:09:05.344Z,13.88
2023-03-02T09:11:34.199Z,14.50
2023-03-02T09:14:02.636Z,14.03
2023-03-02T09:16:30.917Z,15.08
2023-03-02T09:18:59.380Z,15.02
2023-03-02T09:21:27.424Z,15.64
2023-03-02T09:23:58.375Z,16.48
2023-03-02T09:26:29.007Z,16.79
2023-03-02T09:28:57.527Z,16.55
2023-03-02T09:31:25.555Z,17.50
2023-03-02T09:33:54.136Z,17.23
2023-03-02T09:36:23.915Z,17.27
2023-03-02T09:38:52.178Z,17.77
2023-03-02T09:41:20.582Z,17.83
2023-03-02T09:44:19.644Z,17.92
2023-03-02T09:47:04.671Z,17.89
2023-03-02T09:50:02.165Z,17.77
2023-03-02T09:52:32.577Z,18.02
2023-03-02T09:55:15.644Z,18.28
2023-03-02T09:57:46.583Z,18.30
2023-03-02T10:00:33.349Z,18.70
2023-03-02T10:03:17.390Z,18.92
2023-03-02T10:05:50.239Z,19.08
2023-03-02T10:08:30.346Z,20.05
2023-03-02T10:11:28.471Z,20.03
2023-03-02T10:14:06.045Z,19.84
2023-03-02T10:16:37.209Z,20.50
2023-03-02T10:19:22.039Z,20.45
2023-03-02T10:21:54.872Z,20.89
2023-03-02T10:24:45.021Z,19.44
2023-03-02T10:27:24.747Z,19.92
2023-03-02T10:29:57.308Z,19.73
2023-03-02T10:32:36.552Z,19.97
2023-03-02T10:35:14.438Z,20.79
2023-03-02T10:37:42.814Z,20.62
2023-03-02T10:40:29.426Z,19.75
2023-03-02T10:43:00.052Z,19.59
2023-03-02T10:45:32.521Z,20.48
2023-03-02T10:48:12.480Z,21.42
2023-03-02T10:50:43.603Z,21.74
2023-03-02T10:53:19.323Z,21.54
2023-03-02T10:55:50.498Z,20.88
2023-03-02T10:58:23.271Z,20.68
2023-03-02T11:01:07.485Z,20.91
2023-03-02T11:03:35.681Z,21.72
2023-03-02T11:06:24.506Z,22.62
2023-03-02T11:09:06.988Z,22.28
2023-03-02T11:11:35.800Z,21.75
2023-03-02T11:14:16.220Z,21.58
2023-03-02T11:16:44.943Z,22.56
2023-03-02T11:19:17.800Z,22.33
2023-03-02T11:21:57.206Z,22.05
2023-03-02T11:24:25.206Z,21.98
2023-03-02T11:27:01.392Z,21.60
2023-03-02T11:29:54.145Z,22.16
2023-03-02T11:32:41.175Z,21.83
2023-03-02T11:35:09.121Z,21.27
2023-03-02T11:37:45.880Z,20.15
2023-03-02T11:40:33.759Z,21.58
2023-03-02T11:43:06.999Z,22.69
2023-03-02T11:45:49.335Z,21.95
2023-03-02T11:48:22.316Z,21.78
2023-03-02T11:51:10.775Z,21.84
2023-03-02T11:53:44.123Z,22.68
2023-03-02T11:56:12.413Z,22.32
2023-03-02T11:58:42.781Z,21.65
2023-03-02T12:01:25.183Z,21.71
2023-03-02T12:03:54.658Z,20.74
2023-03-02T12:06:22.701Z,19.14
2023-03-02T12:08:55.195Z,19.98
2023-03-02T12:11:23.513Z,19.31
2023-03-02T12:13:54.663Z,20.46
2023-03-02T12:16:35.053Z,19.13
2023-03-02T12:19:29.209Z,18.28
2023-03-02T12:22:01.076Z,17.91
2023-03-02T12:24:34.618Z,17.59
2023-03-02T12:27:04.481Z,17.93
2023-03-02T12:29:45.226Z,16.87
2023-03-02T12:32:19.362Z,17.44
2023-03-02T12:34:58.121Z,17.42
2023-03-02T12:37:53.610Z,17.11
2023-03-02T12:40:45.208Z,17.02
2023-03-02T12:43:34.631Z,17.51
2023-03-02T12:46:33.693Z,17.11
2023-03-02T12:49:18.720Z,16.68
2023-03-02T12:51:51.938Z,17.19
2023-03-02T12:54:39.427Z,17.04
2023-03-02T12:57:15.042Z,17.00
2023-03-02T12:59:43.745Z,16.00
2023-03-02T13:02:23.611Z,16.95
2023-03-02T13:04:58.963Z,16.57
2023-03-02T13:08:01.282Z,16.56
2023-03-02T13:10:40.724Z,16.72
2023-03-02T13:13:28.258Z,16.15
2023-03-02T13:15:58.380Z,16.65
2023-03-02T13:18:32.140Z,16.38
2023-03-02T13:21:01.673Z,16.09
2023-03-02T13:23:31.479Z,15.95
2023-03-02T13:26:05.119Z,16.65
2023-03-02T13:28:35.796Z,15.59
2023-03-02T13:31:18.936Z,15.93
2023-03-02T13:33:48.575Z,16.60
2023-03-02T13:36:21.297Z,16.00
2023-03-02T13:38:54.299Z,16.52
2023-03-02T13:41:27.273Z,16.21
2023-03-02T13:43:56.240Z,15.77
2023-03-02T13:46:27.815Z,15.81
2023-03-02T13:49:09.237Z,15.52
2023-03-02T13:51:44.927Z,15.83
2023-03-02T13:54:21.534Z,15.55
2023-03-02T13:56:51.427Z,15.24
2023-03-02T13:59:21.838Z,15.41
2023-03-02T14:01:50.401Z,15.58
2023-03-02T14:04:27.377Z,15.59
2023-03-02T14:06:55.888Z,15.16
2023-03-02T14:09:24.371Z,15.15
2023-03-02T14:11:54.168Z,14.97
2023-03-02T14:14:24.957Z,15.06
2023-03-02T14:16:53.314Z,14.57
2023-03-02T14:19:21.697Z,14.71
2023-03-02T14:21:53.265Z,14.69
2023-03-02T14:24:21.758Z,14.53
2023-03-02T14:26:50.240Z,14.88
2023-03-02T14:29:31.285Z,14.58
2023-03-02T14:32:03.895Z,14.29
2023-03-02T14:34:32.000Z,14.06
2023-03-02T14:37:04.318Z,14.27
2023-03-02T14:39:50.305Z,14.15
2023-03-02T14:42:21.630Z,14.39
2023-03-02T14:44:52.310Z,14.46
2023-03-02T14:47:21.985Z,14.40
2023-03-02T14:49:50.130Z,14.17
2023-03-02T14:52:31.968Z,14.16
2023-03-02T14:55:03.044Z,14.41
2023-03-02T14:57:35.300Z,14.15
2023-03-02T15:00:05.051Z,14.33
2023-03-02T15:02:33.747Z,14.29
2023-03-02T15:05:01.894Z,14.22
2023-03-02T15:07:29.917Z,14.06
2023-03-02T15:09:58.726Z,14.02
2023-03-02T15:12:28.293Z,13.74
2023-03-02T15:14:56.370Z,14.09
2023-03-02T15:17:24.934Z,13.82
2023-03-02T15:19:56.295Z,13.72
2023-03-02T15:22:26.332Z,13.62
2023-03-02T15:24:56.348Z,13.70
2023-03-02T15:27:24.480Z,13.79
2023-03-02T15:29:54.517Z,13.59
2023-03-02T15:32:24.006Z,13.77
2023-03-02T15:34:52.483Z,13.24
2023-03-02T15:37:22.319Z,13.38
2023-03-02T15:39:55.563Z,13.46
2023-03-02T15:42:24.396Z,13.23
2023-03-02T15:44:54.404Z,13.26
2023-03-02T15:47:24.365Z,12.85
2023-03-02T15:49:52.755Z,12.77
2023-03-02T15:52:21.242Z,13.07
2023-03-02T15:54:49.385Z,12.80
2023-03-02T15:57:18.046Z,12.81
2023-03-02T15:59:46.533Z,12.86
2023-03-02T16:02:15.500Z,12.47
2023-03-02T16:04:43.963Z,12.41
2023-03-02T16:07:12.112Z,12.24
2023-03-02T16:09:40.445Z,12.29
2023-03-02T16:12:09.106Z,11.92
2023-03-02T16:14:37.283Z,11.58
2023-03-02T16:17:05.347Z,11.88
2023-03-02T16:19:33.789Z,11.46
2023-03-02T16:22:02.009Z,11.07
2023-03-02T16:24:30.071Z,11.07
2023-03-02T16:26:58.635Z,11.11
2023-03-02T16:29:28.368Z,11.32
2023-03-02T16:31:56.564Z,11.25
2023-03-02T16:34:25.032Z,10.94
2023-03-02T16:36:53.053Z,10.54
2023-03-02T16:39:21.273Z,10.51
2023-03-02T16:41:51.583Z,10.11
2023-03-02T16:44:19.900Z,10.21
2023-03-02T16:46:49.414Z,9.56
2023-03-02T16:49:17.741Z,9.72
2023-03-02T16:51:45.937Z,9.28
2023-03-02T16:54:16.304Z,9.44
2023-03-02T16:56:47.793Z,9.35
2023-03-02T16:59:16.489Z,9.10
2023-03-02T17:01:45.460Z,9.25
2023-03-02T17:04:13.827Z,8.79
2023-03-02T17:06:59.612Z,8.78
2023-03-02T17:09:28.812Z,8.63
2023-03-02T17:12:00.718Z,8.84
2023-03-02T17:14:31.350Z,8.89
2023-03-02T17:16:59.969Z,8.88
2023-03-02T17:19:29.865Z,8.89
2023-03-02T17:22:03.638Z,8.47
2023-03-02T17:24:32.152Z,8.35
2023-03-02T17:27:01.230Z,8.35
2023-03-02T17:29:29.830Z,8.27
2023-03-02T17:32:04.117Z,7.96
2023-03-02T17:34:34.049Z,8.16
2023-03-02T17:37:02.806Z,8.27
2023-03-02T17:39:31.519Z,8.14
2023-03-02T17:41:59.888Z,8.04
2023-03-02T17:44:28.016Z,8.00
2023-03-02T17:46:56.141Z,8.19
2023-03-02T17:49:24.576Z,7.94
2023-03-02T17:51:52.506Z,7.88
2023-03-02T17:54:20.543Z,8.09
2023-03-02T17:56:49.075Z,7.84
2023-03-02T17:59:17.124Z,7.47
2023-03-02T18:01:47.077Z,7.48
2023-03-02T18:04:15.435Z,7.62
2023-03-02T18:06:43.524Z,7.59
2023-03-02T18:09:11.703Z,7.76
2023-03-02T18:11:43.518Z,7.68
2023-03-02T18:14:15.381Z,7.76
2023-03-02T18:16:44.107Z,7.98
2023-03-02T18:19:12.446Z,7.41
2023-03-02T18:21:41.964Z,7.26
2023-03-02T18:24:10.519Z,7.64
2023-03-02T18:26:38.696Z,7.34
2023-03-02T18:29:06.819Z,7.51
2023-03-02T18:31:35.388Z,7.34
2023-03-02T18:34:04.155Z,7.35
2023-03-02T18:36:32.115Z,6.98
2023-03-02T18:39:00.472Z,7.34
2023-03-02T18:41:28.624Z,7.15
2023-03-02T18:43:56.584Z,7.27
2023-03-02T18:46:26.748Z,7.39
2023-03-02T18:48:55.843Z,7.81
2023-03-02T18:51:25.401Z,7.29
2023-03-02T18:53:54.165Z,7.65
2023-03-02T18:56:22.890Z,7.80
2023-03-02T18:58:51.764Z,7.04
2023-03-02T19:01:20.647Z,7.54
2023-03-02T19:03:49.304Z,7.44
2023-03-02T19:06:17.839Z,7.60
2023-03-02T19:08:47.496Z,6.98
2023-03-02T19:11:15.441Z,6.88
2023-03-02T19:13:43.806Z,7.08
2023-03-02T19:16:11.897Z,6.58
2023-03-02T19:18:39.807Z,6.64
2023-03-02T19:21:08.238Z,6.15
2023-03-02T19:23:36.310Z,4.90
2023-03-02T19:26:05.080Z,5.57
2023-03-02T19:28:35.412Z,5.51
2023-03-02T19:31:07.105Z,5.23
2023-03-02T19:33:36.525Z,4.66
2023-03-02T19:36:06.388Z,4.99
2023-03-02T19:38:39.595Z,4.91
2023-03-02T19:41:12.291Z,4.71
2023-03-02T19:43:43.043Z,4.70
2023-03-02T19:46:13.210Z,4.51
2023-03-02T19:48:42.423Z,4.24
2023-03-02T19:51:12.341Z,3.55
2023-03-02T19:53:41.920Z,3.93
2023-03-02T19:56:15.665Z,3.66
2023-03-02T19:58:49.835Z,3.55
2023-03-02T20:01:23.595Z,3.59
2023-03-02T20:03:53.270Z,3.41
2023-03-02T20:06:23.745Z,3.58
2023-03-02T20:08:53.795Z,3.30
2023-03-02T20:11:23.973Z,1.99
2023-03-02T20:13:54.540Z,3.29
2023-03-02T20:16:23.125Z,3.36
2023-03-02T20:18:52.029Z,3.23
2023-03-02T20:21:21.466Z,3.07
2023-03-02T20:23:50.245Z,3.13
2023-03-02T20:26:18.392Z,3.14
2023-03-02T20:28:47.127Z,3.25
2023-03-02T20:31:15.855Z,3.04
2023-03-02T20:33:47.516Z,2.90
2023-03-02T20:36:18.585Z,2.85
2023-03-02T20:38:50.793Z,2.57
2023-03-02T20:41:19.513Z,2.56
2023-03-02T20:43:47.803Z,2.92
2023-03-02T20:46:25.966Z,2.71
2023-03-02T20:48:54.867Z,2.51
2023-03-02T20:51:23.321Z,2.43
2023-03-02T20:53:51.491Z,2.68
2023-03-02T20:56:20.805Z,3.20
2023-03-02T20:58:49.041Z,3.16
2023-03-02T21:01:18.052Z,2.34
2023-03-02T21:03:47.075Z,1.80
2023-03-02T21:06:15.521Z,1.55
2023-03-02T21:08:44.585Z,2.06
2023-03-02T21:11:16.341Z,2.35
2023-03-02T21:13:46.090Z,2.40
2023-03-02T21:16:21.610Z,2.93
2023-03-02T21:18:49.544Z,3.09
2023-03-02T21:21:20.203Z,3.36
2023-03-02T21:23:50.965Z,2.98
2023-03-02T21:26:19.692Z,3.05
2023-03-02T21:28:47.714Z,3.74
2023-03-02T21:31:18.407Z,3.84
2023-03-02T21:33:46.945Z,3.73
2023-03-02T21:36:22.146Z,3.67
2023-03-02T21:38:51.796Z,3.56
2023-03-02T21:41:19.885Z,3.31
2023-03-02T21:43:48.782Z,3.25
2023-03-02T21:46:20.953Z,3.10
2023-03-02T21:48:50.146Z,2.53
2023-03-02T21:51:18.957Z,2.79
2023-03-02T21:53:47.120Z,2.44
2023-03-02T21:56:21.913Z,2.68
2023-03-02T21:58:51.941Z,2.07
2023-03-02T22:01:21.000Z,2.58
2023-03-02T22:03:50.186Z,2.42
2023-03-02T22:06:20.268Z,2.98
2023-03-02T22:08:48.645Z,3.04
2023-03-02T22:11:24.095Z,2.96
2023-03-02T22:13:55.468Z,3.05
2023-03-02T22:16:26.067Z,3.02
2023-03-02T22:18:57.208Z,2.92
2023-03-02T22:21:35.864Z,1.98
2023-03-02T22:24:13.316Z,2.89
2023-03-02T22:27:07.294Z,2.93
2023-03-02T22:29:40.316Z,2.64
2023-03-02T22:32:19.772Z,1.82
2023-03-02T22:34:52.591Z,2.65
2023-03-02T22:37:26.364Z,2.61
2023-03-02T22:39:56.671Z,2.55
2023-03-02T22:42:29.934Z,2.50
2023-03-02T22:45:14.912Z,2.55
2023-03-02T22:47:44.738Z,2.50
2023-03-02T22:50:32.949Z,2.30
2023-03-02T22:53:07.147Z,2.38
2023-03-02T22:55:40.514Z,2.38
2023-03-02T22:58:48.095Z,2.05
2023-03-02T23:01:24.144Z,2.04
2023-03-02T23:03:55.283Z,2.41
2023-03-02T23:06:32.582Z,2.41
2023-03-02T23:09:02.980Z,2.22
2023-03-02T23:11:35.282Z,2.07
2023-03-02T23:14:11.562Z,2.07
2023-03-02T23:16:39.768Z,2.08
2023-03-02T23:19:08.072Z,2.12
2023-03-02T23:21:39.919Z,2.25
2023-03-02T23:24:08.735Z,2.16
2023-03-02T23:26:36.808Z,2.16
2023-03-02T23:29:05.839Z,2.01
2023-03-02T23:31:34.244Z,2.20
2023-03-02T23:34:02.244Z,2.20
2023-03-02T23:36:32.150Z,1.92
2023-03-02T23:39:00.555Z,1.99
2023-03-02T23:41:28.592Z,2.16
2023-03-02T23:43:56.768Z,2.18
2023-03-02T23:46:25.967Z,2.01
2023-03-02T23:48:56.206Z,1.89
2023-03-02T23:51:25.791Z,2.02
2023-03-02T23:53:54.500Z,2.17
2023-03-02T23:56:22.653Z,2.11
2023-03-02T23:58:51.231Z,2.19
